sensor_id;sensor_type;location;lat;lon;timestamp;P1;durP1;ratioP1;P2;durP2;ratioP2
80584;SDS011;70137;56.482;9.154;2023-05-21T00:00:44;7.07;;;3.00;;
80584;SDS011;70137;56.482;9.154;2023-05-21T00:03:10;5.70;;;3.00;;
80584;SDS011;70137;56.482;9.154;2023-05-21T00:05:40;5.03;;;2.78;;
80584;SDS011;70137;56.482;9.154;2023-05-21T00:08:06;5.97;;;3.15;;
80584;SDS011;70137;56.482;9.154;2023-05-21T00:10:32;6.28;;;3.25;;
80584;SDS011;70137;56.482;9.154;2023-05-21T00:12:57;6.40;;;3.15;;
80584;SDS011;70137;56.482;9.154;2023-05-21T00:15:23;7.85;;;3.80;;
80584;SDS011;70137;56.482;9.154;2023-05-21T00:17:48;8.20;;;5.00;;
80584;SDS011;70137;56.482;9.154;2023-05-21T00:20:13;10.38;;;3.95;;
80584;SDS011;70137;56.482;9.154;2023-05-21T00:22:40;6.63;;;3.80;;
80584;SDS011;70137;56.482;9.154;2023-05-21T00:25:06;7.05;;;4.10;;
80584;SDS011;70137;56.482;9.154;2023-05-21T00:27:32;10.98;;;4.20;;
80584;SDS011;70137;56.482;9.154;2023-05-21T00:29:57;9.07;;;3.80;;
80584;SDS011;70137;56.482;9.154;2023-05-21T00:32:23;7.00;;;3.55;;
80584;SDS011;70137;56.482;9.154;2023-05-21T00:34:48;7.18;;;3.50;;
80584;SDS011;70137;56.482;9.154;2023-05-21T00:37:13;7.05;;;3.90;;
80584;SDS011;70137;56.482;9.154;2023-05-21T00:39:39;7.97;;;3.88;;
80584;SDS011;70137;56.482;9.154;2023-05-21T00:42:05;10.00;;;4.18;;
80584;SDS011;70137;56.482;9.154;2023-05-21T00:44:30;7.85;;;3.92;;
80584;SDS011;70137;56.482;9.154;2023-05-21T00:46:58;6.60;;;3.53;;
80584;SDS011;70137;56.482;9.154;2023-05-21T00:49:26;8.48;;;3.90;;
80584;SDS011;70137;56.482;9.154;2023-05-21T00:51:51;5.28;;;3.70;;
80584;SDS011;70137;56.482;9.154;2023-05-21T00:54:18;8.27;;;3.97;;
80584;SDS011;70137;56.482;9.154;2023-05-21T00:56:44;8.25;;;3.72;;
80584;SDS011;70137;56.482;9.154;2023-05-21T00:59:10;10.68;;;4.90;;
80584;SDS011;70137;56.482;9.154;2023-05-21T01:01:36;10.63;;;4.85;;
80584;SDS011;70137;56.482;9.154;2023-05-21T01:04:02;11.55;;;4.88;;
80584;SDS011;70137;56.482;9.154;2023-05-21T01:06:27;10.32;;;4.70;;
80584;SDS011;70137;56.482;9.154;2023-05-21T01:08:53;10.25;;;3.97;;
80584;SDS011;70137;56.482;9.154;2023-05-21T01:11:24;7.40;;;3.85;;
80584;SDS011;70137;56.482;9.154;2023-05-21T01:14:03;8.40;;;4.60;;
80584;SDS011;70137;56.482;9.154;2023-05-21T01:16:31;8.38;;;4.45;;
80584;SDS011;70137;56.482;9.154;2023-05-21T01:18:57;8.63;;;4.50;;
80584;SDS011;70137;56.482;9.154;2023-05-21T01:21:23;7.35;;;4.40;;
80584;SDS011;70137;56.482;9.154;2023-05-21T01:23:49;6.50;;;4.13;;
80584;SDS011;70137;56.482;9.154;2023-05-21T01:26:15;7.47;;;4.50;;
80584;SDS011;70137;56.482;9.154;2023-05-21T01:28:40;8.52;;;4.60;;
80584;SDS011;70137;56.482;9.154;2023-05-21T01:31:10;9.57;;;4.57;;
80584;SDS011;70137;56.482;9.154;2023-05-21T01:33:57;6.18;;;4.43;;
80584;SDS011;70137;56.482;9.154;2023-05-21T01:36:30;8.35;;;4.60;;
80584;SDS011;70137;56.482;9.154;2023-05-21T01:41:51;9.00;;;4.88;;
80584;SDS011;70137;56.482;9.154;2023-05-21T01:44:18;8.02;;;4.45;;
80584;SDS011;70137;56.482;9.154;2023-05-21T01:46:46;7.15;;;4.57;;
80584;SDS011;70137;56.482;9.154;2023-05-21T01:49:13;9.13;;;4.65;;
80584;SDS011;70137;56.482;9.154;2023-05-21T01:51:40;8.00;;;4.10;;
80584;SDS011;70137;56.482;9.154;2023-05-21T01:54:05;8.63;;;4.82;;
80584;SDS011;70137;56.482;9.154;2023-05-21T01:56:31;7.15;;;4.38;;
80584;SDS011;70137;56.482;9.154;2023-05-21T01:58:58;5.45;;;3.88;;
80584;SDS011;70137;56.482;9.154;2023-05-21T02:01:24;7.38;;;3.95;;
80584;SDS011;70137;56.482;9.154;2023-05-21T02:03:50;6.18;;;3.97;;
80584;SDS011;70137;56.482;9.154;2023-05-21T02:06:16;5.82;;;3.15;;
80584;SDS011;70137;56.482;9.154;2023-05-21T02:08:41;4.78;;;3.88;;
80584;SDS011;70137;56.482;9.154;2023-05-21T02:11:06;5.85;;;3.50;;
80584;SDS011;70137;56.482;9.154;2023-05-21T02:13:32;5.55;;;3.60;;
80584;SDS011;70137;56.482;9.154;2023-05-21T02:15:57;7.40;;;3.80;;
80584;SDS011;70137;56.482;9.154;2023-05-21T02:18:23;7.32;;;3.20;;
80584;SDS011;70137;56.482;9.154;2023-05-21T02:20:48;6.35;;;3.50;;
80584;SDS011;70137;56.482;9.154;2023-05-21T02:23:13;5.45;;;3.28;;
80584;SDS011;70137;56.482;9.154;2023-05-21T02:25:39;5.78;;;3.30;;
80584;SDS011;70137;56.482;9.154;2023-05-21T02:28:04;7.20;;;3.50;;
80584;SDS011;70137;56.482;9.154;2023-05-21T02:30:30;4.38;;;3.20;;
80584;SDS011;70137;56.482;9.154;2023-05-21T02:32:56;6.32;;;3.90;;
80584;SDS011;70137;56.482;9.154;2023-05-21T02:35:23;6.10;;;3.70;;
80584;SDS011;70137;56.482;9.154;2023-05-21T02:37:48;6.63;;;3.60;;
80584;SDS011;70137;56.482;9.154;2023-05-21T02:40:13;7.50;;;4.10;;
80584;SDS011;70137;56.482;9.154;2023-05-21T02:42:39;8.35;;;4.10;;
80584;SDS011;70137;56.482;9.154;2023-05-21T02:45:08;5.70;;;4.00;;
80584;SDS011;70137;56.482;9.154;2023-05-21T02:47:35;7.90;;;3.90;;
80584;SDS011;70137;56.482;9.154;2023-05-21T02:50:02;6.78;;;4.45;;
80584;SDS011;70137;56.482;9.154;2023-05-21T02:52:27;6.82;;;4.35;;
80584;SDS011;70137;56.482;9.154;2023-05-21T02:54:53;7.15;;;4.40;;
80584;SDS011;70137;56.482;9.154;2023-05-21T02:57:18;6.35;;;4.22;;
80584;SDS011;70137;56.482;9.154;2023-05-21T02:59:44;8.15;;;4.20;;
80584;SDS011;70137;56.482;9.154;2023-05-21T03:02:09;8.40;;;3.97;;
80584;SDS011;70137;56.482;9.154;2023-05-21T03:04:35;6.90;;;3.95;;
80584;SDS011;70137;56.482;9.154;2023-05-21T03:07:03;5.70;;;3.63;;
80584;SDS011;70137;56.482;9.154;2023-05-21T03:09:29;7.18;;;3.65;;
80584;SDS011;70137;56.482;9.154;2023-05-21T03:11:54;6.88;;;4.00;;
80584;SDS011;70137;56.482;9.154;2023-05-21T03:14:19;6.13;;;3.70;;
80584;SDS011;70137;56.482;9.154;2023-05-21T03:16:45;9.07;;;3.72;;
80584;SDS011;70137;56.482;9.154;2023-05-21T03:19:11;6.70;;;3.78;;
80584;SDS011;70137;56.482;9.154;2023-05-21T03:21:37;8.13;;;3.83;;
80584;SDS011;70137;56.482;9.154;2023-05-21T03:24:05;5.85;;;3.50;;
80584;SDS011;70137;56.482;9.154;2023-05-21T03:26:31;10.30;;;3.78;;
80584;SDS011;70137;56.482;9.154;2023-05-21T03:28:56;5.93;;;3.20;;
80584;SDS011;70137;56.482;9.154;2023-05-21T03:31:22;4.43;;;3.30;;
80584;SDS011;70137;56.482;9.154;2023-05-21T03:33:48;5.90;;;3.63;;
80584;SDS011;70137;56.482;9.154;2023-05-21T03:36:15;5.10;;;3.53;;
80584;SDS011;70137;56.482;9.154;2023-05-21T03:38:40;7.78;;;3.90;;
80584;SDS011;70137;56.482;9.154;2023-05-21T03:41:06;5.43;;;3.72;;
80584;SDS011;70137;56.482;9.154;2023-05-21T03:43:32;7.07;;;4.30;;
80584;SDS011;70137;56.482;9.154;2023-05-21T03:45:57;5.75;;;4.00;;
80584;SDS011;70137;56.482;9.154;2023-05-21T03:48:23;6.85;;;4.10;;
80584;SDS011;70137;56.482;9.154;2023-05-21T03:50:48;6.65;;;4.22;;
80584;SDS011;70137;56.482;9.154;2023-05-21T03:53:13;7.20;;;4.00;;
80584;SDS011;70137;56.482;9.154;2023-05-21T03:55:39;6.68;;;4.45;;
80584;SDS011;70137;56.482;9.154;2023-05-21T03:58:04;7.00;;;4.50;;
80584;SDS011;70137;56.482;9.154;2023-05-21T04:00:30;7.45;;;4.65;;
80584;SDS011;70137;56.482;9.154;2023-05-21T04:02:58;10.50;;;5.10;;
80584;SDS011;70137;56.482;9.154;2023-05-21T04:05:23;9.15;;;4.68;;
80584;SDS011;70137;56.482;9.154;2023-05-21T04:07:49;9.80;;;4.50;;
80584;SDS011;70137;56.482;9.154;2023-05-21T04:10:14;9.40;;;5.63;;
80584;SDS011;70137;56.482;9.154;2023-05-21T04:12:40;13.32;;;6.18;;
80584;SDS011;70137;56.482;9.154;2023-05-21T04:15:05;11.30;;;7.38;;
80584;SDS011;70137;56.482;9.154;2023-05-21T04:17:31;15.07;;;7.32;;
80584;SDS011;70137;56.482;9.154;2023-05-21T04:19:57;11.45;;;7.30;;
80584;SDS011;70137;56.482;9.154;2023-05-21T04:22:22;12.77;;;7.55;;
80584;SDS011;70137;56.482;9.154;2023-05-21T04:24:50;13.30;;;7.65;;
80584;SDS011;70137;56.482;9.154;2023-05-21T04:27:16;15.40;;;8.40;;
80584;SDS011;70137;56.482;9.154;2023-05-21T04:29:41;13.27;;;8.13;;
80584;SDS011;70137;56.482;9.154;2023-05-21T04:32:07;12.55;;;8.25;;
80584;SDS011;70137;56.482;9.154;2023-05-21T04:34:33;15.70;;;8.50;;
80584;SDS011;70137;56.482;9.154;2023-05-21T04:36:58;15.00;;;8.98;;
80584;SDS011;70137;56.482;9.154;2023-05-21T04:39:26;13.90;;;8.45;;
80584;SDS011;70137;56.482;9.154;2023-05-21T04:41:53;18.02;;;9.65;;
80584;SDS011;70137;56.482;9.154;2023-05-21T04:44:20;14.85;;;9.65;;
80584;SDS011;70137;56.482;9.154;2023-05-21T04:46:46;14.43;;;9.02;;
80584;SDS011;70137;56.482;9.154;2023-05-21T04:49:12;14.48;;;8.98;;
80584;SDS011;70137;56.482;9.154;2023-05-21T04:51:39;15.48;;;9.10;;
80584;SDS011;70137;56.482;9.154;2023-05-21T04:54:05;13.60;;;9.50;;
80584;SDS011;70137;56.482;9.154;2023-05-21T04:56:31;14.13;;;7.78;;
80584;SDS011;70137;56.482;9.154;2023-05-21T04:58:56;13.70;;;8.30;;
80584;SDS011;70137;56.482;9.154;2023-05-21T05:01:22;12.18;;;9.50;;
80584;SDS011;70137;56.482;9.154;2023-05-21T05:03:49;15.05;;;9.90;;
80584;SDS011;70137;56.482;9.154;2023-05-21T05:06:15;16.67;;;11.18;;
80584;SDS011;70137;56.482;9.154;2023-05-21T05:08:40;16.77;;;10.23;;
80584;SDS011;70137;56.482;9.154;2023-05-21T05:11:06;19.30;;;10.48;;
80584;SDS011;70137;56.482;9.154;2023-05-21T05:13:32;16.73;;;9.85;;
80584;SDS011;70137;56.482;9.154;2023-05-21T05:15:58;15.70;;;10.50;;
80584;SDS011;70137;56.482;9.154;2023-05-21T05:18:24;12.75;;;9.65;;
80584;SDS011;70137;56.482;9.154;2023-05-21T05:20:49;12.85;;;8.98;;
80584;SDS011;70137;56.482;9.154;2023-05-21T05:23:15;13.15;;;9.02;;
80584;SDS011;70137;56.482;9.154;2023-05-21T05:25:40;17.00;;;10.40;;
80584;SDS011;70137;56.482;9.154;2023-05-21T05:28:05;18.52;;;9.43;;
80584;SDS011;70137;56.482;9.154;2023-05-21T05:30:31;14.32;;;8.50;;
80584;SDS011;70137;56.482;9.154;2023-05-21T05:32:56;12.05;;;8.40;;
80584;SDS011;70137;56.482;9.154;2023-05-21T05:35:21;13.30;;;9.25;;
80584;SDS011;70137;56.482;9.154;2023-05-21T05:37:47;13.35;;;7.30;;
80584;SDS011;70137;56.482;9.154;2023-05-21T05:40:12;12.15;;;7.50;;
80584;SDS011;70137;56.482;9.154;2023-05-21T05:42:37;11.48;;;7.85;;
80584;SDS011;70137;56.482;9.154;2023-05-21T05:45:03;11.32;;;7.20;;
80584;SDS011;70137;56.482;9.154;2023-05-21T05:47:28;11.45;;;6.88;;
80584;SDS011;70137;56.482;9.154;2023-05-21T05:49:54;10.02;;;6.78;;
80584;SDS011;70137;56.482;9.154;2023-05-21T05:52:19;9.80;;;6.63;;
80584;SDS011;70137;56.482;9.154;2023-05-21T05:54:45;14.77;;;6.53;;
80584;SDS011;70137;56.482;9.154;2023-05-21T05:57:11;12.45;;;6.38;;
80584;SDS011;70137;56.482;9.154;2023-05-21T05:59:36;8.45;;;5.80;;
80584;SDS011;70137;56.482;9.154;2023-05-21T06:02:01;8.85;;;5.80;;
80584;SDS011;70137;56.482;9.154;2023-05-21T06:04:26;6.78;;;4.70;;
80584;SDS011;70137;56.482;9.154;2023-05-21T06:06:54;5.63;;;4.18;;
80584;SDS011;70137;56.482;9.154;2023-05-21T06:09:21;6.15;;;3.67;;
80584;SDS011;70137;56.482;9.154;2023-05-21T06:11:47;7.03;;;4.40;;
80584;SDS011;70137;56.482;9.154;2023-05-21T06:14:12;6.53;;;4.05;;
80584;SDS011;70137;56.482;9.154;2023-05-21T06:16:37;5.57;;;4.15;;
80584;SDS011;70137;56.482;9.154;2023-05-21T06:19:02;7.95;;;4.63;;
80584;SDS011;70137;56.482;9.154;2023-05-21T06:21:28;7.78;;;4.50;;
80584;SDS011;70137;56.482;9.154;2023-05-21T06:23:53;6.22;;;3.88;;
80584;SDS011;70137;56.482;9.154;2023-05-21T06:26:18;6.53;;;3.90;;
80584;SDS011;70137;56.482;9.154;2023-05-21T06:28:44;5.15;;;4.00;;
80584;SDS011;70137;56.482;9.154;2023-05-21T06:31:09;8.10;;;4.00;;
80584;SDS011;70137;56.482;9.154;2023-05-21T06:33:35;7.53;;;4.10;;
80584;SDS011;70137;56.482;9.154;2023-05-21T06:36:01;6.80;;;4.13;;
80584;SDS011;70137;56.482;9.154;2023-05-21T06:38:26;7.07;;;3.85;;
80584;SDS011;70137;56.482;9.154;2023-05-21T06:40:51;5.30;;;3.38;;
80584;SDS011;70137;56.482;9.154;2023-05-21T06:43:17;8.52;;;3.67;;
80584;SDS011;70137;56.482;9.154;2023-05-21T06:45:42;5.70;;;3.63;;
80584;SDS011;70137;56.482;9.154;2023-05-21T06:48:07;5.15;;;3.72;;
80584;SDS011;70137;56.482;9.154;2023-05-21T06:50:33;7.55;;;3.50;;
80584;SDS011;70137;56.482;9.154;2023-05-21T06:52:58;6.88;;;3.53;;
80584;SDS011;70137;56.482;9.154;2023-05-21T06:55:23;5.97;;;3.58;;
80584;SDS011;70137;56.482;9.154;2023-05-21T06:57:49;6.70;;;3.40;;
80584;SDS011;70137;56.482;9.154;2023-05-21T07:00:14;4.70;;;3.13;;
80584;SDS011;70137;56.482;9.154;2023-05-21T07:02:39;6.80;;;3.50;;
80584;SDS011;70137;56.482;9.154;2023-05-21T07:05:05;3.22;;;2.63;;
80584;SDS011;70137;56.482;9.154;2023-05-21T07:07:30;5.88;;;2.80;;
80584;SDS011;70137;56.482;9.154;2023-05-21T07:09:55;4.22;;;2.58;;
80584;SDS011;70137;56.482;9.154;2023-05-21T07:12:21;5.70;;;2.40;;
80584;SDS011;70137;56.482;9.154;2023-05-21T07:14:46;3.38;;;2.17;;
80584;SDS011;70137;56.482;9.154;2023-05-21T07:17:11;4.13;;;2.30;;
80584;SDS011;70137;56.482;9.154;2023-05-21T07:19:36;4.30;;;2.10;;
80584;SDS011;70137;56.482;9.154;2023-05-21T07:22:02;4.13;;;2.15;;
80584;SDS011;70137;56.482;9.154;2023-05-21T07:24:28;3.67;;;2.17;;
80584;SDS011;70137;56.482;9.154;2023-05-21T07:26:53;4.68;;;2.38;;
80584;SDS011;70137;56.482;9.154;2023-05-21T07:29:18;4.45;;;2.17;;
80584;SDS011;70137;56.482;9.154;2023-05-21T07:31:44;3.28;;;2.10;;
80584;SDS011;70137;56.482;9.154;2023-05-21T07:34:09;4.13;;;1.90;;
80584;SDS011;70137;56.482;9.154;2023-05-21T07:36:35;5.82;;;2.13;;
80584;SDS011;70137;56.482;9.154;2023-05-21T07:39:00;2.88;;;1.90;;
80584;SDS011;70137;56.482;9.154;2023-05-21T07:41:26;4.28;;;1.80;;
80584;SDS011;70137;56.482;9.154;2023-05-21T07:43:51;4.45;;;1.63;;
80584;SDS011;70137;56.482;9.154;2023-05-21T07:46:17;2.25;;;1.38;;
80584;SDS011;70137;56.482;9.154;2023-05-21T07:48:42;5.68;;;1.70;;
80584;SDS011;70137;56.482;9.154;2023-05-21T07:51:08;2.60;;;1.60;;
80584;SDS011;70137;56.482;9.154;2023-05-21T07:53:33;3.83;;;1.70;;
80584;SDS011;70137;56.482;9.154;2023-05-21T07:55:58;3.25;;;1.33;;
80584;SDS011;70137;56.482;9.154;2023-05-21T07:58:24;2.72;;;1.33;;
80584;SDS011;70137;56.482;9.154;2023-05-21T08:00:49;2.70;;;1.45;;
80584;SDS011;70137;56.482;9.154;2023-05-21T08:03:15;2.88;;;1.30;;
80584;SDS011;70137;56.482;9.154;2023-05-21T08:05:44;1.17;;;1.02;;
80584;SDS011;70137;56.482;9.154;2023-05-21T08:08:16;2.75;;;1.17;;
80584;SDS011;70137;56.482;9.154;2023-05-21T08:10:45;5.30;;;1.27;;
80584;SDS011;70137;56.482;9.154;2023-05-21T08:13:15;4.30;;;1.60;;
80584;SDS011;70137;56.482;9.154;2023-05-21T08:15:41;4.07;;;1.60;;
80584;SDS011;70137;56.482;9.154;2023-05-21T08:18:06;5.78;;;1.60;;
80584;SDS011;70137;56.482;9.154;2023-05-21T08:20:31;3.40;;;1.45;;
80584;SDS011;70137;56.482;9.154;2023-05-21T08:22:57;3.40;;;1.40;;
80584;SDS011;70137;56.482;9.154;2023-05-21T08:25:26;4.10;;;1.05;;
80584;SDS011;70137;56.482;9.154;2023-05-21T08:27:52;7.13;;;1.95;;
80584;SDS011;70137;56.482;9.154;2023-05-21T08:30:18;2.67;;;1.40;;
80584;SDS011;70137;56.482;9.154;2023-05-21T08:32:43;3.22;;;1.60;;
80584;SDS011;70137;56.482;9.154;2023-05-21T08:35:09;3.88;;;1.80;;
80584;SDS011;70137;56.482;9.154;2023-05-21T08:37:34;2.70;;;1.58;;
80584;SDS011;70137;56.482;9.154;2023-05-21T08:40:00;5.53;;;1.70;;
80584;SDS011;70137;56.482;9.154;2023-05-21T08:42:47;3.42;;;1.60;;
80584;SDS011;70137;56.482;9.154;2023-05-21T08:45:16;3.67;;;1.50;;
80584;SDS011;70137;56.482;9.154;2023-05-21T08:47:47;5.75;;;1.77;;
80584;SDS011;70137;56.482;9.154;2023-05-21T08:50:25;6.03;;;1.77;;
80584;SDS011;70137;56.482;9.154;2023-05-21T08:52:51;6.97;;;1.80;;
80584;SDS011;70137;56.482;9.154;2023-05-21T08:55:17;3.85;;;1.60;;
80584;SDS011;70137;56.482;9.154;2023-05-21T08:57:42;3.30;;;1.65;;
80584;SDS011;70137;56.482;9.154;2023-05-21T09:00:08;3.42;;;1.70;;
80584;SDS011;70137;56.482;9.154;2023-05-21T09:02:35;2.13;;;1.70;;
80584;SDS011;70137;56.482;9.154;2023-05-21T09:05:04;3.42;;;1.73;;
80584;SDS011;70137;56.482;9.154;2023-05-21T09:07:30;4.43;;;1.52;;
80584;SDS011;70137;56.482;9.154;2023-05-21T09:10:04;4.07;;;1.67;;
80584;SDS011;70137;56.482;9.154;2023-05-21T09:12:34;4.32;;;2.30;;
80584;SDS011;70137;56.482;9.154;2023-05-21T09:15:00;5.07;;;1.70;;
80584;SDS011;70137;56.482;9.154;2023-05-21T09:17:26;3.45;;;1.63;;
80584;SDS011;70137;56.482;9.154;2023-05-21T09:25:10;4.18;;;2.05;;
80584;SDS011;70137;56.482;9.154;2023-05-21T09:27:37;4.00;;;1.40;;
80584;SDS011;70137;56.482;9.154;2023-05-21T09:30:03;3.40;;;1.92;;
80584;SDS011;70137;56.482;9.154;2023-05-21T09:32:33;2.38;;;1.70;;
80584;SDS011;70137;56.482;9.154;2023-05-21T09:35:03;8.38;;;1.95;;
80584;SDS011;70137;56.482;9.154;2023-05-21T09:37:31;3.90;;;1.73;;
80584;SDS011;70137;56.482;9.154;2023-05-21T09:40:03;4.97;;;1.90;;
80584;SDS011;70137;56.482;9.154;2023-05-21T09:42:34;3.13;;;1.63;;
80584;SDS011;70137;56.482;9.154;2023-05-21T09:44:59;4.50;;;1.80;;
80584;SDS011;70137;56.482;9.154;2023-05-21T09:47:24;4.85;;;1.58;;
80584;SDS011;70137;56.482;9.154;2023-05-21T09:49:50;3.05;;;1.40;;
80584;SDS011;70137;56.482;9.154;2023-05-21T09:52:22;3.10;;;1.75;;
80584;SDS011;70137;56.482;9.154;2023-05-21T09:54:49;3.38;;;1.60;;
80584;SDS011;70137;56.482;9.154;2023-05-21T09:57:15;1.80;;;1.48;;
80584;SDS011;70137;56.482;9.154;2023-05-21T09:59:48;2.88;;;1.60;;
80584;SDS011;70137;56.482;9.154;2023-05-21T10:02:21;2.67;;;1.55;;
80584;SDS011;70137;56.482;9.154;2023-05-21T10:04:48;4.35;;;1.80;;
80584;SDS011;70137;56.482;9.154;2023-05-21T10:07:18;4.63;;;1.85;;
80584;SDS011;70137;56.482;9.154;2023-05-21T10:12:18;4.32;;;1.70;;
80584;SDS011;70137;56.482;9.154;2023-05-21T10:14:48;1.75;;;1.60;;
80584;SDS011;70137;56.482;9.154;2023-05-21T10:17:18;1.63;;;1.27;;
80584;SDS011;70137;56.482;9.154;2023-05-21T10:19:44;2.75;;;1.38;;
80584;SDS011;70137;56.482;9.154;2023-05-21T10:22:10;2.92;;;1.63;;
80584;SDS011;70137;56.482;9.154;2023-05-21T10:24:37;2.10;;;1.65;;
80584;SDS011;70137;56.482;9.154;2023-05-21T10:27:04;2.65;;;1.52;;
80584;SDS011;70137;56.482;9.154;2023-05-21T10:29:31;1.92;;;1.50;;
80584;SDS011;70137;56.482;9.154;2023-05-21T10:31:57;2.17;;;1.90;;
80584;SDS011;70137;56.482;9.154;2023-05-21T10:34:24;3.65;;;1.70;;
80584;SDS011;70137;56.482;9.154;2023-05-21T10:36:51;4.05;;;1.70;;
80584;SDS011;70137;56.482;9.154;2023-05-21T10:39:19;5.15;;;1.80;;
80584;SDS011;70137;56.482;9.154;2023-05-21T10:42:19;5.00;;;2.00;;
80584;SDS011;70137;56.482;9.154;2023-05-21T10:44:59;2.42;;;1.65;;
80584;SDS011;70137;56.482;9.154;2023-05-21T10:50:22;3.35;;;1.27;;
80584;SDS011;70137;56.482;9.154;2023-05-21T10:55:41;4.10;;;1.85;;
80584;SDS011;70137;56.482;9.154;2023-05-21T11:01:36;2.72;;;1.45;;
80584;SDS011;70137;56.482;9.154;2023-05-21T11:04:03;2.53;;;1.67;;
80584;SDS011;70137;56.482;9.154;2023-05-21T11:06:30;2.15;;;1.60;;
80584;SDS011;70137;56.482;9.154;2023-05-21T11:08:55;3.78;;;1.88;;
80584;SDS011;70137;56.482;9.154;2023-05-21T11:17:00;5.30;;;2.28;;
80584;SDS011;70137;56.482;9.154;2023-05-21T11:19:37;3.65;;;1.67;;
80584;SDS011;70137;56.482;9.154;2023-05-21T11:22:21;3.30;;;1.83;;
80584;SDS011;70137;56.482;9.154;2023-05-21T11:24:46;3.38;;;2.15;;
80584;SDS011;70137;56.482;9.154;2023-05-21T11:27:12;3.42;;;1.83;;
80584;SDS011;70137;56.482;9.154;2023-05-21T11:29:38;7.13;;;2.55;;
80584;SDS011;70137;56.482;9.154;2023-05-21T11:32:05;4.43;;;2.20;;
80584;SDS011;70137;56.482;9.154;2023-05-21T11:34:36;3.40;;;1.88;;
80584;SDS011;70137;56.482;9.154;2023-05-21T11:39:50;3.22;;;1.90;;
80584;SDS011;70137;56.482;9.154;2023-05-21T11:42:28;4.03;;;2.30;;
80584;SDS011;70137;56.482;9.154;2023-05-21T11:45:03;5.32;;;2.33;;
80584;SDS011;70137;56.482;9.154;2023-05-21T11:47:29;3.03;;;2.40;;
80584;SDS011;70137;56.482;9.154;2023-05-21T11:49:57;3.15;;;2.20;;
80584;SDS011;70137;56.482;9.154;2023-05-21T11:52:24;7.25;;;2.08;;
80584;SDS011;70137;56.482;9.154;2023-05-21T11:54:53;2.50;;;1.92;;
80584;SDS011;70137;56.482;9.154;2023-05-21T11:57:28;3.58;;;2.13;;
80584;SDS011;70137;56.482;9.154;2023-05-21T11:59:57;4.28;;;2.45;;
80584;SDS011;70137;56.482;9.154;2023-05-21T12:02:24;3.63;;;2.20;;
80584;SDS011;70137;56.482;9.154;2023-05-21T12:04:52;3.80;;;1.75;;
80584;SDS011;70137;56.482;9.154;2023-05-21T12:07:17;5.53;;;2.42;;
80584;SDS011;70137;56.482;9.154;2023-05-21T12:09:47;6.13;;;2.20;;
80584;SDS011;70137;56.482;9.154;2023-05-21T12:12:17;3.75;;;2.05;;
80584;SDS011;70137;56.482;9.154;2023-05-21T12:14:47;3.20;;;2.55;;
80584;SDS011;70137;56.482;9.154;2023-05-21T12:17:14;8.50;;;2.10;;
80584;SDS011;70137;56.482;9.154;2023-05-21T12:19:41;4.30;;;2.22;;
80584;SDS011;70137;56.482;9.154;2023-05-21T12:22:07;3.80;;;2.30;;
80584;SDS011;70137;56.482;9.154;2023-05-21T12:24:34;5.00;;;2.20;;
80584;SDS011;70137;56.482;9.154;2023-05-21T12:27:00;3.13;;;2.00;;
80584;SDS011;70137;56.482;9.154;2023-05-21T12:29:28;2.95;;;2.00;;
80584;SDS011;70137;56.482;9.154;2023-05-21T12:31:57;6.40;;;2.60;;
80584;SDS011;70137;56.482;9.154;2023-05-21T12:37:06;3.05;;;2.20;;
80584;SDS011;70137;56.482;9.154;2023-05-21T12:39:32;4.72;;;2.38;;
80584;SDS011;70137;56.482;9.154;2023-05-21T12:42:01;7.28;;;2.40;;
80584;SDS011;70137;56.482;9.154;2023-05-21T12:44:28;3.03;;;2.00;;
80584;SDS011;70137;56.482;9.154;2023-05-21T12:46:55;4.13;;;2.10;;
80584;SDS011;70137;56.482;9.154;2023-05-21T12:49:31;4.93;;;2.45;;
80584;SDS011;70137;56.482;9.154;2023-05-21T12:52:02;3.08;;;1.83;;
80584;SDS011;70137;56.482;9.154;2023-05-21T12:54:32;5.43;;;2.30;;
80584;SDS011;70137;56.482;9.154;2023-05-21T12:57:33;3.47;;;2.50;;
80584;SDS011;70137;56.482;9.154;2023-05-21T13:00:01;2.85;;;2.13;;
80584;SDS011;70137;56.482;9.154;2023-05-21T13:05:08;6.00;;;2.50;;
80584;SDS011;70137;56.482;9.154;2023-05-21T13:07:35;4.93;;;2.30;;
80584;SDS011;70137;56.482;9.154;2023-05-21T13:10:02;5.65;;;2.53;;
80584;SDS011;70137;56.482;9.154;2023-05-21T13:12:29;3.60;;;2.30;;
80584;SDS011;70137;56.482;9.154;2023-05-21T13:14:56;2.78;;;2.00;;
80584;SDS011;70137;56.482;9.154;2023-05-21T13:17:23;2.40;;;2.03;;
80584;SDS011;70137;56.482;9.154;2023-05-21T13:20:08;3.08;;;2.10;;
80584;SDS011;70137;56.482;9.154;2023-05-21T13:22:36;2.58;;;2.30;;
80584;SDS011;70137;56.482;9.154;2023-05-21T13:25:06;4.03;;;2.70;;
80584;SDS011;70137;56.482;9.154;2023-05-21T13:27:35;3.80;;;2.55;;
80584;SDS011;70137;56.482;9.154;2023-05-21T13:30:01;3.15;;;2.35;;
80584;SDS011;70137;56.482;9.154;2023-05-21T13:32:26;2.80;;;2.20;;
80584;SDS011;70137;56.482;9.154;2023-05-21T13:34:52;4.72;;;2.28;;
80584;SDS011;70137;56.482;9.154;2023-05-21T13:37:17;5.30;;;2.45;;
80584;SDS011;70137;56.482;9.154;2023-05-21T13:39:44;4.20;;;2.10;;
80584;SDS011;70137;56.482;9.154;2023-05-21T13:42:09;6.18;;;2.90;;
80584;SDS011;70137;56.482;9.154;2023-05-21T13:44:34;4.00;;;2.50;;
80584;SDS011;70137;56.482;9.154;2023-05-21T13:47:03;3.83;;;2.00;;
80584;SDS011;70137;56.482;9.154;2023-05-21T13:49:30;3.33;;;2.50;;
80584;SDS011;70137;56.482;9.154;2023-05-21T13:51:55;7.90;;;2.47;;
80584;SDS011;70137;56.482;9.154;2023-05-21T13:54:22;4.80;;;2.22;;
80584;SDS011;70137;56.482;9.154;2023-05-21T13:56:48;3.90;;;2.40;;
80584;SDS011;70137;56.482;9.154;2023-05-21T13:59:13;3.75;;;2.25;;
80584;SDS011;70137;56.482;9.154;2023-05-21T14:01:38;4.10;;;2.30;;
80584;SDS011;70137;56.482;9.154;2023-05-21T14:04:04;4.53;;;2.45;;
80584;SDS011;70137;56.482;9.154;2023-05-21T14:06:31;4.68;;;2.30;;
80584;SDS011;70137;56.482;9.154;2023-05-21T14:08:57;4.88;;;2.20;;
80584;SDS011;70137;56.482;9.154;2023-05-21T14:11:23;5.57;;;2.20;;
80584;SDS011;70137;56.482;9.154;2023-05-21T14:13:48;2.67;;;2.05;;
80584;SDS011;70137;56.482;9.154;2023-05-21T14:16:14;3.00;;;2.20;;
80584;SDS011;70137;56.482;9.154;2023-05-21T14:18:39;4.07;;;2.30;;
80584;SDS011;70137;56.482;9.154;2023-05-21T14:21:04;4.32;;;2.17;;
80584;SDS011;70137;56.482;9.154;2023-05-21T14:23:30;3.75;;;2.33;;
80584;SDS011;70137;56.482;9.154;2023-05-21T14:25:55;5.43;;;2.10;;
80584;SDS011;70137;56.482;9.154;2023-05-21T14:28:21;3.92;;;2.15;;
80584;SDS011;70137;56.482;9.154;2023-05-21T14:30:46;4.35;;;2.10;;
80584;SDS011;70137;56.482;9.154;2023-05-21T14:33:11;5.20;;;2.10;;
80584;SDS011;70137;56.482;9.154;2023-05-21T14:35:37;4.50;;;2.33;;
80584;SDS011;70137;56.482;9.154;2023-05-21T14:38:02;6.28;;;2.42;;
80584;SDS011;70137;56.482;9.154;2023-05-21T14:40:28;3.40;;;2.30;;
80584;SDS011;70137;56.482;9.154;2023-05-21T14:42:53;3.38;;;2.00;;
80584;SDS011;70137;56.482;9.154;2023-05-21T14:45:19;4.25;;;2.17;;
80584;SDS011;70137;56.482;9.154;2023-05-21T14:47:45;5.80;;;2.25;;
80584;SDS011;70137;56.482;9.154;2023-05-21T14:50:11;4.15;;;2.30;;
80584;SDS011;70137;56.482;9.154;2023-05-21T14:52:37;4.78;;;2.10;;
80584;SDS011;70137;56.482;9.154;2023-05-21T14:55:02;3.80;;;2.30;;
80584;SDS011;70137;56.482;9.154;2023-05-21T14:57:28;5.38;;;2.58;;
80584;SDS011;70137;56.482;9.154;2023-05-21T14:59:53;4.97;;;2.20;;
80584;SDS011;70137;56.482;9.154;2023-05-21T15:02:19;3.60;;;2.10;;
80584;SDS011;70137;56.482;9.154;2023-05-21T15:04:44;3.70;;;3.17;;
80584;SDS011;70137;56.482;9.154;2023-05-21T15:07:10;3.13;;;2.30;;
80584;SDS011;70137;56.482;9.154;2023-05-21T15:09:36;3.95;;;2.35;;
80584;SDS011;70137;56.482;9.154;2023-05-21T15:12:01;5.20;;;2.42;;
80584;SDS011;70137;56.482;9.154;2023-05-21T15:14:27;2.75;;;2.30;;
80584;SDS011;70137;56.482;9.154;2023-05-21T15:16:52;3.20;;;2.08;;